sensor_id;sensor_type;location;lat;lon;timestamp;P1;durP1;ratioP1;P2;durP2;ratioP2
79130;SDS011;70394;45.194;9.142;2023-07-31T00:01:43;3.67;;;2.58;;
79130;SDS011;70394;45.194;9.142;2023-07-31T00:04:08;4.22;;;3.15;;
79130;SDS011;70394;45.194;9.142;2023-07-31T00:06:33;4.78;;;3.08;;
79130;SDS011;70394;45.194;9.142;2023-07-31T00:08:59;4.75;;;3.25;;
79130;SDS011;70394;45.194;9.142;2023-07-31T00:11:24;4.35;;;3.03;;
79130;SDS011;70394;45.194;9.142;2023-07-31T00:13:50;4.18;;;3.15;;
79130;SDS011;70394;45.194;9.142;2023-07-31T00:16:15;4.80;;;3.03;;
79130;SDS011;70394;45.194;9.142;2023-07-31T00:18:40;3.95;;;2.83;;
79130;SDS011;70394;45.194;9.142;2023-07-31T00:21:06;4.75;;;3.33;;
79130;SDS011;70394;45.194;9.142;2023-07-31T00:23:31;4.13;;;2.88;;
79130;SDS011;70394;45.194;9.142;2023-07-31T00:25:56;4.15;;;2.90;;
79130;SDS011;70394;45.194;9.142;2023-07-31T00:28:22;4.75;;;3.47;;
79130;SDS011;70394;45.194;9.142;2023-07-31T00:30:47;5.25;;;3.72;;
79130;SDS011;70394;45.194;9.142;2023-07-31T00:33:12;4.18;;;3.00;;
79130;SDS011;70394;45.194;9.142;2023-07-31T00:35:38;4.90;;;3.05;;
79130;SDS011;70394;45.194;9.142;2023-07-31T00:38:03;4.65;;;2.92;;
79130;SDS011;70394;45.194;9.142;2023-07-31T00:40:28;4.88;;;3.22;;
79130;SDS011;70394;45.194;9.142;2023-07-31T00:42:54;4.78;;;3.47;;
79130;SDS011;70394;45.194;9.142;2023-07-31T00:45:19;4.20;;;3.13;;
79130;SDS011;70394;45.194;9.142;2023-07-31T00:47:47;4.88;;;3.40;;
79130;SDS011;70394;45.194;9.142;2023-07-31T00:50:13;4.95;;;3.25;;
79130;SDS011;70394;45.194;9.142;2023-07-31T00:52:39;6.13;;;3.15;;
79130;SDS011;70394;45.194;9.142;2023-07-31T00:55:05;4.18;;;3.15;;
79130;SDS011;70394;45.194;9.142;2023-07-31T00:57:31;4.97;;;3.33;;
79130;SDS011;70394;45.194;9.142;2023-07-31T00:59:58;4.13;;;2.92;;
79130;SDS011;70394;45.194;9.142;2023-07-31T01:02:23;5.35;;;3.10;;
79130;SDS011;70394;45.194;9.142;2023-07-31T01:04:49;4.47;;;2.88;;
79130;SDS011;70394;45.194;9.142;2023-07-31T01:07:27;3.75;;;2.90;;
79130;SDS011;70394;45.194;9.142;2023-07-31T01:10:16;6.07;;;3.55;;
79130;SDS011;70394;45.194;9.142;2023-07-31T01:12:43;4.78;;;3.30;;
79130;SDS011;70394;45.194;9.142;2023-07-31T01:15:10;5.53;;;3.40;;
79130;SDS011;70394;45.194;9.142;2023-07-31T01:17:39;5.00;;;3.70;;
79130;SDS011;70394;45.194;9.142;2023-07-31T01:20:09;5.45;;;3.60;;
79130;SDS011;70394;45.194;9.142;2023-07-31T01:28:12;5.30;;;3.72;;
79130;SDS011;70394;45.194;9.142;2023-07-31T01:30:41;5.10;;;3.47;;
79130;SDS011;70394;45.194;9.142;2023-07-31T01:33:09;4.70;;;3.80;;
79130;SDS011;70394;45.194;9.142;2023-07-31T01:35:36;4.97;;;3.70;;
79130;SDS011;70394;45.194;9.142;2023-07-31T01:38:02;5.63;;;4.07;;
79130;SDS011;70394;45.194;9.142;2023-07-31T01:40:29;6.10;;;3.60;;
79130;SDS011;70394;45.194;9.142;2023-07-31T01:42:54;5.43;;;3.78;;
79130;SDS011;70394;45.194;9.142;2023-07-31T01:45:20;5.93;;;4.30;;
79130;SDS011;70394;45.194;9.142;2023-07-31T01:47:45;6.03;;;4.38;;
79130;SDS011;70394;45.194;9.142;2023-07-31T01:50:10;5.28;;;4.07;;
79130;SDS011;70394;45.194;9.142;2023-07-31T01:52:36;5.78;;;3.92;;
79130;SDS011;70394;45.194;9.142;2023-07-31T01:55:01;5.63;;;4.05;;
79130;SDS011;70394;45.194;9.142;2023-07-31T01:57:27;5.13;;;3.92;;
79130;SDS011;70394;45.194;9.142;2023-07-31T01:59:52;6.43;;;4.80;;
79130;SDS011;70394;45.194;9.142;2023-07-31T02:02:21;5.22;;;4.25;;
79130;SDS011;70394;45.194;9.142;2023-07-31T02:04:48;6.22;;;4.68;;
79130;SDS011;70394;45.194;9.142;2023-07-31T02:07:13;5.43;;;4.40;;
79130;SDS011;70394;45.194;9.142;2023-07-31T02:09:38;7.82;;;5.75;;
79130;SDS011;70394;45.194;9.142;2023-07-31T02:12:04;6.20;;;4.68;;
79130;SDS011;70394;45.194;9.142;2023-07-31T02:14:30;6.85;;;5.43;;
79130;SDS011;70394;45.194;9.142;2023-07-31T02:16:55;6.47;;;4.70;;
79130;SDS011;70394;45.194;9.142;2023-07-31T02:19:20;6.30;;;5.03;;
79130;SDS011;70394;45.194;9.142;2023-07-31T02:21:46;6.03;;;4.72;;
79130;SDS011;70394;45.194;9.142;2023-07-31T02:24:11;5.35;;;4.38;;
79130;SDS011;70394;45.194;9.142;2023-07-31T02:26:36;6.35;;;4.60;;
79130;SDS011;70394;45.194;9.142;2023-07-31T02:29:02;8.30;;;5.75;;
79130;SDS011;70394;45.194;9.142;2023-07-31T02:31:27;7.00;;;5.10;;
79130;SDS011;70394;45.194;9.142;2023-07-31T02:33:52;6.15;;;5.18;;
79130;SDS011;70394;45.194;9.142;2023-07-31T02:36:18;5.90;;;4.90;;
79130;SDS011;70394;45.194;9.142;2023-07-31T02:38:44;6.65;;;4.90;;
79130;SDS011;70394;45.194;9.142;2023-07-31T02:41:09;5.75;;;4.55;;
79130;SDS011;70394;45.194;9.142;2023-07-31T02:43:34;4.97;;;4.20;;
79130;SDS011;70394;45.194;9.142;2023-07-31T02:46:00;5.80;;;4.45;;
79130;SDS011;70394;45.194;9.142;2023-07-31T02:48:25;6.97;;;5.45;;
79130;SDS011;70394;45.194;9.142;2023-07-31T02:50:50;5.10;;;4.60;;
79130;SDS011;70394;45.194;9.142;2023-07-31T02:53:16;7.97;;;5.13;;
79130;SDS011;70394;45.194;9.142;2023-07-31T02:55:41;6.18;;;4.93;;
79130;SDS011;70394;45.194;9.142;2023-07-31T02:58:06;6.47;;;3.75;;
79130;SDS011;70394;45.194;9.142;2023-07-31T03:00:32;5.07;;;4.28;;
79130;SDS011;70394;45.194;9.142;2023-07-31T03:02:57;6.82;;;4.90;;
79130;SDS011;70394;45.194;9.142;2023-07-31T03:05:22;5.55;;;4.50;;
79130;SDS011;70394;45.194;9.142;2023-07-31T03:07:48;5.43;;;4.55;;
79130;SDS011;70394;45.194;9.142;2023-07-31T03:10:13;6.15;;;4.40;;
79130;SDS011;70394;45.194;9.142;2023-07-31T03:12:39;7.35;;;5.10;;
79130;SDS011;70394;45.194;9.142;2023-07-31T03:15:05;6.28;;;4.68;;
79130;SDS011;70394;45.194;9.142;2023-07-31T03:17:31;6.00;;;4.90;;
79130;SDS011;70394;45.194;9.142;2023-07-31T03:19:56;5.78;;;4.80;;
79130;SDS011;70394;45.194;9.142;2023-07-31T03:22:21;6.60;;;5.65;;
79130;SDS011;70394;45.194;9.142;2023-07-31T03:24:47;6.38;;;5.05;;
79130;SDS011;70394;45.194;9.142;2023-07-31T03:27:12;6.72;;;5.13;;
79130;SDS011;70394;45.194;9.142;2023-07-31T03:29:37;6.05;;;4.35;;
79130;SDS011;70394;45.194;9.142;2023-07-31T03:32:03;6.53;;;4.90;;
79130;SDS011;70394;45.194;9.142;2023-07-31T03:34:29;5.70;;;4.82;;
79130;SDS011;70394;45.194;9.142;2023-07-31T03:36:54;6.03;;;4.57;;
79130;SDS011;70394;45.194;9.142;2023-07-31T03:39:20;6.10;;;5.18;;
79130;SDS011;70394;45.194;9.142;2023-07-31T03:41:45;5.93;;;4.57;;
79130;SDS011;70394;45.194;9.142;2023-07-31T03:44:11;6.10;;;4.90;;
79130;SDS011;70394;45.194;9.142;2023-07-31T03:46:36;6.10;;;4.38;;
79130;SDS011;70394;45.194;9.142;2023-07-31T03:49:01;6.97;;;5.00;;
79130;SDS011;70394;45.194;9.142;2023-07-31T03:51:27;5.72;;;5.03;;
79130;SDS011;70394;45.194;9.142;2023-07-31T03:53:52;5.60;;;4.45;;
79130;SDS011;70394;45.194;9.142;2023-07-31T03:56:17;5.82;;;4.75;;
79130;SDS011;70394;45.194;9.142;2023-07-31T03:58:43;5.38;;;4.43;;
79130;SDS011;70394;45.194;9.142;2023-07-31T04:01:08;6.05;;;5.28;;
79130;SDS011;70394;45.194;9.142;2023-07-31T04:03:33;6.65;;;4.57;;
79130;SDS011;70394;45.194;9.142;2023-07-31T04:05:59;6.00;;;4.80;;
79130;SDS011;70394;45.194;9.142;2023-07-31T04:08:24;5.10;;;4.50;;
79130;SDS011;70394;45.194;9.142;2023-07-31T04:10:50;6.40;;;5.03;;
79130;SDS011;70394;45.194;9.142;2023-07-31T04:13:15;4.82;;;3.75;;
79130;SDS011;70394;45.194;9.142;2023-07-31T04:15:41;5.20;;;4.60;;
79130;SDS011;70394;45.194;9.142;2023-07-31T04:18:06;6.20;;;4.40;;
79130;SDS011;70394;45.194;9.142;2023-07-31T04:20:31;5.65;;;4.40;;
79130;SDS011;70394;45.194;9.142;2023-07-31T04:22:57;5.45;;;4.13;;
79130;SDS011;70394;45.194;9.142;2023-07-31T04:25:22;6.57;;;4.35;;
79130;SDS011;70394;45.194;9.142;2023-07-31T04:27:48;5.30;;;3.92;;
79130;SDS011;70394;45.194;9.142;2023-07-31T04:30:13;5.97;;;4.68;;
79130;SDS011;70394;45.194;9.142;2023-07-31T04:32:39;6.03;;;4.30;;
79130;SDS011;70394;45.194;9.142;2023-07-31T04:35:04;6.80;;;4.20;;
79130;SDS011;70394;45.194;9.142;2023-07-31T04:37:30;4.88;;;3.83;;
79130;SDS011;70394;45.194;9.142;2023-07-31T04:39:55;6.05;;;3.50;;
79130;SDS011;70394;45.194;9.142;2023-07-31T04:42:21;5.72;;;4.20;;
79130;SDS011;70394;45.194;9.142;2023-07-31T04:44:46;5.47;;;4.35;;
79130;SDS011;70394;45.194;9.142;2023-07-31T04:47:12;5.68;;;4.40;;
79130;SDS011;70394;45.194;9.142;2023-07-31T04:49:37;6.25;;;4.43;;
79130;SDS011;70394;45.194;9.142;2023-07-31T04:52:02;4.75;;;3.63;;
79130;SDS011;70394;45.194;9.142;2023-07-31T04:54:28;6.68;;;4.50;;
79130;SDS011;70394;45.194;9.142;2023-07-31T04:56:54;7.10;;;4.15;;
79130;SDS011;70394;45.194;9.142;2023-07-31T04:59:19;5.13;;;3.70;;
79130;SDS011;70394;45.194;9.142;2023-07-31T05:01:44;5.75;;;4.35;;
79130;SDS011;70394;45.194;9.142;2023-07-31T05:04:13;4.93;;;3.83;;
79130;SDS011;70394;45.194;9.142;2023-07-31T05:06:41;6.80;;;4.63;;
79130;SDS011;70394;45.194;9.142;2023-07-31T05:09:07;5.32;;;3.35;;
79130;SDS011;70394;45.194;9.142;2023-07-31T05:11:34;5.22;;;3.97;;
79130;SDS011;70394;45.194;9.142;2023-07-31T05:14:00;11.57;;;8.65;;
79130;SDS011;70394;45.194;9.142;2023-07-31T05:16:25;21.10;;;11.30;;
79130;SDS011;70394;45.194;9.142;2023-07-31T05:18:50;47.25;;;12.45;;
79130;SDS011;70394;45.194;9.142;2023-07-31T05:21:16;26.23;;;12.30;;
79130;SDS011;70394;45.194;9.142;2023-07-31T05:23:41;13.95;;;11.07;;
79130;SDS011;70394;45.194;9.142;2023-07-31T05:26:06;13.90;;;11.95;;
79130;SDS011;70394;45.194;9.142;2023-07-31T05:28:34;14.50;;;12.15;;
79130;SDS011;70394;45.194;9.142;2023-07-31T05:31:00;15.02;;;10.93;;
79130;SDS011;70394;45.194;9.142;2023-07-31T05:33:26;17.35;;;10.45;;
79130;SDS011;70394;45.194;9.142;2023-07-31T05:35:52;15.23;;;10.20;;
79130;SDS011;70394;45.194;9.142;2023-07-31T05:38:17;13.07;;;9.52;;
79130;SDS011;70394;45.194;9.142;2023-07-31T05:40:43;12.20;;;9.05;;
79130;SDS011;70394;45.194;9.142;2023-07-31T05:43:08;12.05;;;9.48;;
79130;SDS011;70394;45.194;9.142;2023-07-31T05:45:34;11.98;;;9.60;;
79130;SDS011;70394;45.194;9.142;2023-07-31T05:48:00;12.48;;;10.35;;
79130;SDS011;70394;45.194;9.142;2023-07-31T05:50:25;10.40;;;8.20;;
79130;SDS011;70394;45.194;9.142;2023-07-31T05:52:51;11.80;;;8.98;;
79130;SDS011;70394;45.194;9.142;2023-07-31T05:55:17;21.23;;;9.07;;
79130;SDS011;70394;45.194;9.142;2023-07-31T05:57:42;12.55;;;9.70;;
79130;SDS011;70394;45.194;9.142;2023-07-31T06:00:08;13.35;;;9.90;;
79130;SDS011;70394;45.194;9.142;2023-07-31T06:02:34;15.65;;;9.38;;
79130;SDS011;70394;45.194;9.142;2023-07-31T06:05:01;11.65;;;8.85;;
79130;SDS011;70394;45.194;9.142;2023-07-31T06:07:29;14.95;;;9.32;;
79130;SDS011;70394;45.194;9.142;2023-07-31T06:09:54;12.68;;;9.23;;
79130;SDS011;70394;45.194;9.142;2023-07-31T06:12:20;13.82;;;8.68;;
79130;SDS011;70394;45.194;9.142;2023-07-31T06:14:45;9.65;;;7.60;;
79130;SDS011;70394;45.194;9.142;2023-07-31T06:17:11;9.73;;;7.88;;
79130;SDS011;70394;45.194;9.142;2023-07-31T06:19:36;13.25;;;9.43;;
79130;SDS011;70394;45.194;9.142;2023-07-31T06:22:02;12.02;;;8.23;;
79130;SDS011;70394;45.194;9.142;2023-07-31T06:24:28;11.48;;;8.60;;
79130;SDS011;70394;45.194;9.142;2023-07-31T06:26:53;10.93;;;8.32;;
79130;SDS011;70394;45.194;9.142;2023-07-31T06:29:18;17.08;;;8.85;;
79130;SDS011;70394;45.194;9.142;2023-07-31T06:31:44;10.13;;;7.85;;
79130;SDS011;70394;45.194;9.142;2023-07-31T06:34:09;16.02;;;8.82;;
79130;SDS011;70394;45.194;9.142;2023-07-31T06:36:35;12.02;;;8.10;;
79130;SDS011;70394;45.194;9.142;2023-07-31T06:39:00;8.38;;;6.22;;
79130;SDS011;70394;45.194;9.142;2023-07-31T06:41:26;13.18;;;6.35;;
79130;SDS011;70394;45.194;9.142;2023-07-31T06:43:51;10.20;;;6.78;;
79130;SDS011;70394;45.194;9.142;2023-07-31T06:46:16;11.00;;;6.90;;
79130;SDS011;70394;45.194;9.142;2023-07-31T06:48:42;10.07;;;5.75;;
79130;SDS011;70394;45.194;9.142;2023-07-31T06:51:07;15.55;;;8.70;;
79130;SDS011;70394;45.194;9.142;2023-07-31T06:53:32;17.98;;;8.60;;
79130;SDS011;70394;45.194;9.142;2023-07-31T06:55:58;11.63;;;7.25;;
79130;SDS011;70394;45.194;9.142;2023-07-31T06:58:23;12.00;;;7.88;;
79130;SDS011;70394;45.194;9.142;2023-07-31T07:00:48;10.23;;;6.70;;
79130;SDS011;70394;45.194;9.142;2023-07-31T07:03:18;9.60;;;7.75;;
79130;SDS011;70394;45.194;9.142;2023-07-31T07:05:43;11.07;;;7.80;;
79130;SDS011;70394;45.194;9.142;2023-07-31T07:08:09;12.50;;;7.60;;
79130;SDS011;70394;45.194;9.142;2023-07-31T07:10:34;19.00;;;7.70;;
79130;SDS011;70394;45.194;9.142;2023-07-31T07:13:00;11.93;;;7.93;;
79130;SDS011;70394;45.194;9.142;2023-07-31T07:15:25;10.93;;;6.85;;
79130;SDS011;70394;45.194;9.142;2023-07-31T07:17:50;11.23;;;7.55;;
79130;SDS011;70394;45.194;9.142;2023-07-31T07:20:16;12.02;;;6.55;;
79130;SDS011;70394;45.194;9.142;2023-07-31T07:22:41;9.68;;;6.90;;
79130;SDS011;70394;45.194;9.142;2023-07-31T07:25:08;11.35;;;6.72;;
79130;SDS011;70394;45.194;9.142;2023-07-31T07:27:34;9.55;;;6.28;;
79130;SDS011;70394;45.194;9.142;2023-07-31T07:29:59;10.82;;;6.68;;
79130;SDS011;70394;45.194;9.142;2023-07-31T07:32:25;9.43;;;6.72;;
79130;SDS011;70394;45.194;9.142;2023-07-31T07:34:50;8.88;;;5.50;;
79130;SDS011;70394;45.194;9.142;2023-07-31T07:37:16;8.98;;;6.10;;
79130;SDS011;70394;45.194;9.142;2023-07-31T07:39:42;7.35;;;5.07;;
79130;SDS011;70394;45.194;9.142;2023-07-31T07:42:08;8.05;;;4.80;;
79130;SDS011;70394;45.194;9.142;2023-07-31T07:44:33;7.90;;;4.80;;
79130;SDS011;70394;45.194;9.142;2023-07-31T07:46:58;7.18;;;4.75;;
79130;SDS011;70394;45.194;9.142;2023-07-31T07:49:24;11.18;;;4.97;;
79130;SDS011;70394;45.194;9.142;2023-07-31T07:51:49;7.57;;;5.30;;
79130;SDS011;70394;45.194;9.142;2023-07-31T07:54:15;8.07;;;5.15;;
79130;SDS011;70394;45.194;9.142;2023-07-31T07:56:41;8.88;;;4.63;;
79130;SDS011;70394;45.194;9.142;2023-07-31T07:59:07;7.03;;;5.60;;
79130;SDS011;70394;45.194;9.142;2023-07-31T08:01:32;6.30;;;4.60;;
79130;SDS011;70394;45.194;9.142;2023-07-31T08:03:58;7.15;;;4.72;;
79130;SDS011;70394;45.194;9.142;2023-07-31T08:06:23;6.90;;;4.05;;
79130;SDS011;70394;45.194;9.142;2023-07-31T08:08:49;8.75;;;4.80;;
79130;SDS011;70394;45.194;9.142;2023-07-31T08:11:14;6.88;;;3.83;;
79130;SDS011;70394;45.194;9.142;2023-07-31T08:13:40;8.70;;;4.15;;
79130;SDS011;70394;45.194;9.142;2023-07-31T08:16:05;5.65;;;3.70;;
79130;SDS011;70394;45.194;9.142;2023-07-31T08:18:31;6.47;;;3.22;;
79130;SDS011;70394;45.194;9.142;2023-07-31T08:20:57;7.22;;;4.18;;
79130;SDS011;70394;45.194;9.142;2023-07-31T08:23:22;9.02;;;4.00;;
79130;SDS011;70394;45.194;9.142;2023-07-31T08:25:47;6.70;;;4.35;;
79130;SDS011;70394;45.194;9.142;2023-07-31T08:28:14;6.47;;;3.67;;
79130;SDS011;70394;45.194;9.142;2023-07-31T08:30:40;8.18;;;4.03;;
79130;SDS011;70394;45.194;9.142;2023-07-31T08:33:06;4.97;;;3.72;;
79130;SDS011;70394;45.194;9.142;2023-07-31T08:35:32;6.22;;;3.80;;
79130;SDS011;70394;45.194;9.142;2023-07-31T08:37:57;5.90;;;3.45;;
79130;SDS011;70394;45.194;9.142;2023-07-31T08:40:22;10.40;;;5.55;;
79130;SDS011;70394;45.194;9.142;2023-07-31T08:42:48;8.32;;;4.05;;
79130;SDS011;70394;45.194;9.142;2023-07-31T08:45:15;11.25;;;5.60;;
79130;SDS011;70394;45.194;9.142;2023-07-31T08:47:45;7.97;;;4.72;;
79130;SDS011;70394;45.194;9.142;2023-07-31T08:52:38;4.57;;;3.15;;
79130;SDS011;70394;45.194;9.142;2023-07-31T08:55:04;7.60;;;4.70;;
79130;SDS011;70394;45.194;9.142;2023-07-31T08:57:31;7.68;;;4.45;;
79130;SDS011;70394;45.194;9.142;2023-07-31T08:59:59;6.90;;;4.20;;
79130;SDS011;70394;45.194;9.142;2023-07-31T09:02:25;6.40;;;3.92;;
79130;SDS011;70394;45.194;9.142;2023-07-31T09:04:59;5.35;;;3.28;;
79130;SDS011;70394;45.194;9.142;2023-07-31T09:07:25;5.07;;;3.60;;
79130;SDS011;70394;45.194;9.142;2023-07-31T09:09:50;5.80;;;3.30;;
79130;SDS011;70394;45.194;9.142;2023-07-31T09:12:16;4.80;;;3.53;;
79130;SDS011;70394;45.194;9.142;2023-07-31T09:14:42;7.80;;;3.88;;
79130;SDS011;70394;45.194;9.142;2023-07-31T09:17:10;6.80;;;3.50;;
79130;SDS011;70394;45.194;9.142;2023-07-31T09:19:35;6.32;;;3.58;;
79130;SDS011;70394;45.194;9.142;2023-07-31T09:22:05;5.20;;;3.85;;
79130;SDS011;70394;45.194;9.142;2023-07-31T09:24:31;5.57;;;3.78;;
79130;SDS011;70394;45.194;9.142;2023-07-31T09:26:59;5.55;;;3.28;;
79130;SDS011;70394;45.194;9.142;2023-07-31T09:29:26;5.50;;;3.50;;
79130;SDS011;70394;45.194;9.142;2023-07-31T09:31:53;7.80;;;4.00;;
79130;SDS011;70394;45.194;9.142;2023-07-31T09:34:20;6.63;;;4.40;;
79130;SDS011;70394;45.194;9.142;2023-07-31T09:36:46;7.00;;;3.92;;
79130;SDS011;70394;45.194;9.142;2023-07-31T09:39:13;6.53;;;4.43;;
79130;SDS011;70394;45.194;9.142;2023-07-31T09:41:45;7.95;;;5.18;;
79130;SDS011;70394;45.194;9.142;2023-07-31T09:44:12;5.18;;;3.65;;
79130;SDS011;70394;45.194;9.142;2023-07-31T09:46:37;5.88;;;4.13;;
79130;SDS011;70394;45.194;9.142;2023-07-31T09:49:13;4.68;;;3.45;;
79130;SDS011;70394;45.194;9.142;2023-07-31T09:51:40;6.10;;;3.80;;
79130;SDS011;70394;45.194;9.142;2023-07-31T09:54:13;5.60;;;3.60;;
79130;SDS011;70394;45.194;9.142;2023-07-31T09:56:44;4.90;;;3.50;;
79130;SDS011;70394;45.194;9.142;2023-07-31T09:59:11;4.35;;;3.25;;
79130;SDS011;70394;45.194;9.142;2023-07-31T10:01:39;5.28;;;3.70;;
79130;SDS011;70394;45.194;9.142;2023-07-31T10:04:05;4.90;;;3.58;;
79130;SDS011;70394;45.194;9.142;2023-07-31T10:06:33;6.78;;;3.40;;
79130;SDS011;70394;45.194;9.142;2023-07-31T10:09:00;4.15;;;3.60;;
79130;SDS011;70394;45.194;9.142;2023-07-31T10:11:28;5.88;;;4.03;;
79130;SDS011;70394;45.194;9.142;2023-07-31T10:13:55;5.03;;;3.70;;
79130;SDS011;70394;45.194;9.142;2023-07-31T10:16:21;6.22;;;4.07;;
79130;SDS011;70394;45.194;9.142;2023-07-31T10:18:47;6.13;;;4.28;;
79130;SDS011;70394;45.194;9.142;2023-07-31T10:21:14;4.60;;;3.35;;
79130;SDS011;70394;45.194;9.142;2023-07-31T10:23:40;6.25;;;3.50;;
79130;SDS011;70394;45.194;9.142;2023-07-31T10:26:07;6.72;;;3.97;;
79130;SDS011;70394;45.194;9.142;2023-07-31T10:28:34;4.45;;;3.58;;
79130;SDS011;70394;45.194;9.142;2023-07-31T10:31:02;5.32;;;3.45;;
79130;SDS011;70394;45.194;9.142;2023-07-31T10:33:29;4.78;;;3.58;;
79130;SDS011;70394;45.194;9.142;2023-07-31T10:36:14;5.20;;;3.53;;
79130;SDS011;70394;45.194;9.142;2023-07-31T10:38:42;5.93;;;3.97;;
79130;SDS011;70394;45.194;9.142;2023-07-31T10:41:08;5.25;;;3.22;;
79130;SDS011;70394;45.194;9.142;2023-07-31T10:43:35;5.07;;;3.40;;
79130;SDS011;70394;45.194;9.142;2023-07-31T10:46:05;4.82;;;3.63;;
79130;SDS011;70394;45.194;9.142;2023-07-31T10:48:35;6.07;;;3.45;;
79130;SDS011;70394;45.194;9.142;2023-07-31T10:51:01;5.53;;;4.00;;
79130;SDS011;70394;45.194;9.142;2023-07-31T10:53:32;4.68;;;3.58;;
79130;SDS011;70394;45.194;9.142;2023-07-31T10:56:04;5.30;;;3.60;;
79130;SDS011;70394;45.194;9.142;2023-07-31T10:58:30;12.63;;;3.80;;
79130;SDS011;70394;45.194;9.142;2023-07-31T11:00:58;7.47;;;3.90;;
79130;SDS011;70394;45.194;9.142;2023-07-31T11:03:43;7.70;;;3.85;;
79130;SDS011;70394;45.194;9.142;2023-07-31T11:06:14;6.93;;;3.53;;
79130;SDS011;70394;45.194;9.142;2023-07-31T11:08:41;5.15;;;3.60;;
79130;SDS011;70394;45.194;9.142;2023-07-31T11:11:15;5.18;;;3.53;;
79130;SDS011;70394;45.194;9.142;2023-07-31T11:13:42;5.57;;;3.72;;
79130;SDS011;70394;45.194;9.142;2023-07-31T11:16:15;4.53;;;3.33;;
79130;SDS011;70394;45.194;9.142;2023-07-31T11:18:44;7.00;;;3.80;;
79130;SDS011;70394;45.194;9.142;2023-07-31T11:21:12;6.60;;;3.80;;
79130;SDS011;70394;45.194;9.142;2023-07-31T11:23:41;4.70;;;3.60;;
79130;SDS011;70394;45.194;9.142;2023-07-31T11:26:10;6.13;;;3.60;;
79130;SDS011;70394;45.194;9.142;2023-07-31T11:28:35;6.20;;;3.67;;
79130;SDS011;70394;45.194;9.142;2023-07-31T11:31:01;5.88;;;3.40;;
79130;SDS011;70394;45.194;9.142;2023-07-31T11:33:27;5.22;;;3.22;;
79130;SDS011;70394;45.194;9.142;2023-07-31T11:35:53;4.93;;;3.35;;
79130;SDS011;70394;45.194;9.142;2023-07-31T11:40:54;6.68;;;3.58;;
79130;SDS011;70394;45.194;9.142;2023-07-31T11:43:21;5.38;;;3.60;;
79130;SDS011;70394;45.194;9.142;2023-07-31T11:45:48;4.95;;;3.67;;
79130;SDS011;70394;45.194;9.142;2023-07-31T11:51:02;4.90;;;3.88;;
79130;SDS011;70394;45.194;9.142;2023-07-31T11:53:50;7.35;;;3.47;;
79130;SDS011;70394;45.194;9.142;2023-07-31T11:56:18;6.85;;;3.95;;
79130;SDS011;70394;45.194;9.142;2023-07-31T11:58:45;6.95;;;3.58;;
79130;SDS011;70394;45.194;9.142;2023-07-31T12:01:16;7.15;;;4.20;;
79130;SDS011;70394;45.194;9.142;2023-07-31T12:03:45;6.38;;;3.83;;
79130;SDS011;70394;45.194;9.142;2023-07-31T12:06:12;6.60;;;3.90;;
79130;SDS011;70394;45.194;9.142;2023-07-31T12:08:37;6.47;;;4.35;;
79130;SDS011;70394;45.194;9.142;2023-07-31T12:11:07;5.80;;;3.97;;
79130;SDS011;70394;45.194;9.142;2023-07-31T12:13:36;6.50;;;4.35;;
79130;SDS011;70394;45.194;9.142;2023-07-31T12:16:02;6.63;;;4.05;;
79130;SDS011;70394;45.194;9.142;2023-07-31T12:18:29;5.53;;;3.83;;
79130;SDS011;70394;45.194;9.142;2023-07-31T12:20:59;5.90;;;3.83;;
79130;SDS011;70394;45.194;9.142;2023-07-31T12:23:26;5.38;;;3.97;;
79130;SDS011;70394;45.194;9.142;2023-07-31T12:26:09;6.40;;;4.38;;
79130;SDS011;70394;45.194;9.142;2023-07-31T12:31:15;5.78;;;3.97;;
79130;SDS011;70394;45.194;9.142;2023-07-31T12:33:45;4.93;;;3.85;;
79130;SDS011;70394;45.194;9.142;2023-07-31T12:36:21;5.72;;;3.90;;
79130;SDS011;70394;45.194;9.142;2023-07-31T12:38:48;6.53;;;4.00;;
79130;SDS011;70394;45.194;9.142;2023-07-31T12:41:15;6.65;;;4.13;;
79130;SDS011;70394;45.194;9.142;2023-07-31T12:43:41;6.82;;;4.13;;
79130;SDS011;70394;45.194;9.142;2023-07-31T12:46:08;5.75;;;3.80;;
79130;SDS011;70394;45.194;9.142;2023-07-31T12:48:33;7.80;;;4.47;;
79130;SDS011;70394;45.194;9.142;2023-07-31T12:50:59;5.93;;;4.47;;
79130;SDS011;70394;45.194;9.142;2023-07-31T12:53:25;6.68;;;4.30;;
79130;SDS011;70394;45.194;9.142;2023-07-31T12:55:50;5.95;;;3.97;;
79130;SDS011;70394;45.194;9.142;2023-07-31T12:58:16;4.97;;;4.10;;
79130;SDS011;70394;45.194;9.142;2023-07-31T13:00:41;6.28;;;4.10;;
79130;SDS011;70394;45.194;9.142;2023-07-31T13:03:07;5.28;;;4.00;;
79130;SDS011;70394;45.194;9.142;2023-07-31T13:05:32;7.13;;;4.45;;
79130;SDS011;70394;45.194;9.142;2023-07-31T13:07:58;6.32;;;4.35;;
79130;SDS011;70394;45.194;9.142;2023-07-31T13:10:23;5.43;;;4.05;;
79130;SDS011;70394;45.194;9.142;2023-07-31T13:12:49;5.40;;;4.25;;
79130;SDS011;70394;45.194;9.142;2023-07-31T13:15:14;5.18;;;4.20;;
79130;SDS011;70394;45.194;9.142;2023-07-31T13:17:40;5.47;;;4.25;;
79130;SDS011;70394;45.194;9.142;2023-07-31T13:20:06;6.32;;;4.57;;
79130;SDS011;70394;45.194;9.142;2023-07-31T13:22:32;5.75;;;4.22;;
79130;SDS011;70394;45.194;9.142;2023-07-31T13:24:58;6.18;;;4.40;;
79130;SDS011;70394;45.194;9.142;2023-07-31T13:27:23;7.05;;;4.70;;
79130;SDS011;70394;45.194;9.142;2023-07-31T13:29:49;6.32;;;4.57;;
79130;SDS011;70394;45.194;9.142;2023-07-31T13:32:15;6.65;;;4.05;;
79130;SDS011;70394;45.194;9.142;2023-07-31T13:34:41;5.85;;;4.75;;
79130;SDS011;70394;45.194;9.142;2023-07-31T13:37:07;7.88;;;5.25;;
79130;SDS011;70394;45.194;9.142;2023-07-31T13:39:32;5.93;;;4.45;;
79130;SDS011;70394;45.194;9.142;2023-07-31T13:42:02;5.53;;;4.55;;
79130;SDS011;70394;45.194;9.142;2023-07-31T13:44:28;7.28;;;4.90;;
79130;SDS011;70394;45.194;9.142;2023-07-31T13:46:53;5.88;;;5.00;;
79130;SDS011;70394;45.194;9.142;2023-07-31T13:49:18;5.82;;;4.75;;
79130;SDS011;70394;45.194;9.142;2023-07-31T13:51:44;6.00;;;4.72;;
79130;SDS011;70394;45.194;9.142;2023-07-31T13:54:09;7.72;;;5.13;;
79130;SDS011;70394;45.194;9.142;2023-07-31T13:56:36;6.10;;;4.60;;
79130;SDS011;70394;45.194;9.142;2023-07-31T13:59:02;6.32;;;5.00;;
79130;SDS011;70394;45.194;9.142;2023-07-31T14:01:27;5.63;;;4.95;;
79130;SDS011;70394;45.194;9.142;2023-07-31T14:03:53;5.25;;;4.50;;
79130;SDS011;70394;45.194;9.142;2023-07-31T14:06:18;5.93;;;5.20;;
79130;SDS011;70394;45.194;9.142;2023-07-31T14:08:44;5.95;;;4.22;;
79130;SDS011;70394;45.194;9.142;2023-07-31T14:11:09;6.47;;;4.72;;
79130;SDS011;70394;45.194;9.142;2023-07-31T14:13:35;5.72;;;4.72;;
79130;SDS011;70394;45.194;9.142;2023-07-31T14:16:00;5.88;;;4.65;;
79130;SDS011;70394;45.194;9.142;2023-07-31T14:18:26;8.05;;;4.93;;
79130;SDS011;70394;45.194;9.142;2023-07-31T14:20:51;9.43;;;5.10;;
79130;SDS011;70394;45.194;9.142;2023-07-31T14:23:17;6.55;;;5.05;;
79130;SDS011;70394;45.194;9.142;2023-07-31T14:25:44;7.88;;;5.45;;
79130;SDS011;70394;45.194;9.142;2023-07-31T14:28:10;5.95;;;5.18;;
79130;SDS011;70394;45.194;9.142;2023-07-31T14:30:35;7.32;;;4.88;;
79130;SDS011;70394;45.194;9.142;2023-07-31T14:33:01;8.95;;;5.30;;
79130;SDS011;70394;45.194;9.142;2023-07-31T14:35:27;5.93;;;5.32;;
79130;SDS011;70394;45.194;9.142;2023-07-31T14:37:52;8.77;;;5.28;;
79130;SDS011;70394;45.194;9.142;2023-07-31T14:40:18;5.47;;;4.90;;
79130;SDS011;70394;45.194;9.142;2023-07-31T14:42:43;7.00;;;4.65;;
79130;SDS011;70394;45.194;9.142;2023-07-31T14:45:09;7.32;;;5.28;;
79130;SDS011;70394;45.194;9.142;2023-07-31T14:47:35;7.35;;;4.55;;
79130;SDS011;70394;45.194;9.142;2023-07-31T14:50:00;7.22;;;4.95;;
79130;SDS011;70394;45.194;9.142;2023-07-31T14:52:26;7.38;;;5.10;;
79130;SDS011;70394;45.194;9.142;2023-07-31T14:54:51;5.97;;;4.93;;
79130;SDS011;70394;45.194;9.142;2023-07-31T14:57:17;6.65;;;4.90;;